createdAt,value
2018-09-12T00:00:02.166Z,80.02
2018-09-12T00:01:02.202Z,80.26
2018-09-12T00:02:02.199Z,80.33
2018-09-12T00:03:02.080Z,80.47
2018-09-12T00:04:02.191Z,80.26
2018-09-12T00:05:02.094Z,80.36
2018-09-12T00:06:02.088Z,80.39
2018-09-12T00:07:02.134Z,80.65
2018-09-12T00:08:02.142Z,80.55
2018-09-12T00:09:02.121Z,81.29
2018-09-12T00:10:02.160Z,81.58
2018-09-12T00:11:02.163Z,81.82
2018-09-12T00:12:02.100Z,81.74
2018-09-12T00:13:02.091Z,81.90
2018-09-12T00:14:02.121Z,82.00
2018-09-12T00:15:02.165Z,82.43
2018-09-12T00:16:02.164Z,82.53
2018-09-12T00:17:02.164Z,82.45
2018-09-12T00:18:02.096Z,82.53
2018-09-12T00:19:02.212Z,83.01
2018-09-12T00:20:02.178Z,83.01
2018-09-12T00:21:02.264Z,83.20
2018-09-12T00:22:02.213Z,83.30
2018-09-12T00:23:02.187Z,83.28
2018-09-12T00:24:02.104Z,83.54
2018-09-12T00:25:02.097Z,83.99
2018-09-12T00:26:02.121Z,84.02
2018-09-12T00:27:02.149Z,84.23
2018-09-12T00:28:02.210Z,84.42
2018-09-12T00:29:02.150Z,84.26
2018-09-12T00:30:02.125Z,84.39
2018-09-12T00:31:02.222Z,84.50
2018-09-12T00:32:02.162Z,84.71
2018-09-12T00:33:02.243Z,84.71
2018-09-12T00:34:02.255Z,84.79
2018-09-12T00:35:02.153Z,85.24
2018-09-12T00:36:02.245Z,85.58
2018-09-12T00:37:02.206Z,85.77
2018-09-12T00:38:02.108Z,85.93
2018-09-12T00:39:02.130Z,86.17
2018-09-12T00:40:02.098Z,86.38
2018-09-12T00:41:02.193Z,86.44
2018-09-12T00:42:02.220Z,86.60
2018-09-12T00:43:02.336Z,86.01
2018-09-12T00:44:02.225Z,86.25
2018-09-12T00:45:02.221Z,86.41
2018-09-12T00:46:02.222Z,85.91
2018-09-12T00:47:02.115Z,85.58
2018-09-12T00:48:02.208Z,85.19
2018-09-12T00:49:02.193Z,85.03
2018-09-12T00:50:02.183Z,85.16
2018-09-12T00:51:02.112Z,85.19
2018-09-12T00:52:02.203Z,85.16
2018-09-12T00:53:02.155Z,85.05
2018-09-12T00:54:02.179Z,84.76
2018-09-12T00:55:02.145Z,84.39
2018-09-12T00:56:02.236Z,84.26
2018-09-12T00:57:02.206Z,84.39
2018-09-12T00:58:02.142Z,84.44
2018-09-12T00:59:02.127Z,84.26
2018-09-12T01:00:02.195Z,84.31
2018-09-12T01:01:02.125Z,84.47
2018-09-12T01:02:02.202Z,84.63
2018-09-12T01:03:02.197Z,84.63
2018-09-12T01:04:02.137Z,84.23
2018-09-12T01:05:02.132Z,84.02
2018-09-12T01:06:02.202Z,84.28
2018-09-12T01:07:02.203Z,84.47
2018-09-12T01:08:02.203Z,84.52
2018-09-12T01:09:02.143Z,84.42
2018-09-12T01:10:02.218Z,84.74
2018-09-12T01:11:02.146Z,85.03
2018-09-12T01:12:02.165Z,84.95
2018-09-12T01:13:02.175Z,85.21
2018-09-12T01:14:02.248Z,85.30
2018-09-12T01:15:02.147Z,85.38
2018-09-12T01:16:02.221Z,85.32
2018-09-12T01:17:02.239Z,85.19
2018-09-12T01:18:02.281Z,85.16
2018-09-12T01:19:02.216Z,85.43
2018-09-12T01:20:02.239Z,85.35
2018-09-12T01:21:02.139Z,85.43
2018-09-12T01:22:02.221Z,85.75
2018-09-12T01:23:02.243Z,86.54
2018-09-12T01:24:02.235Z,86.65
2018-09-12T01:25:02.140Z,86.81
2018-09-12T01:26:02.186Z,86.84
2018-09-12T01:27:02.200Z,86.87
2018-09-12T01:28:02.278Z,87.40
2018-09-12T01:29:02.217Z,87.51
2018-09-12T01:30:02.223Z,87.40
2018-09-12T01:31:02.219Z,87.18
2018-09-12T01:32:02.223Z,87.24
2018-09-12T01:33:02.150Z,87.45
2018-09-12T01:34:02.227Z,87.51
2018-09-12T01:35:02.156Z,87.59
2018-09-12T01:36:02.226Z,88.44
2018-09-12T01:37:02.224Z,89.08
2018-09-12T01:38:02.282Z,89.37
2018-09-12T01:39:02.227Z,89.48
2018-09-12T01:40:02.294Z,89.48
2018-09-12T01:41:02.133Z,89.78
2018-09-12T01:42:02.214Z,89.75
2018-09-12T01:43:02.231Z,90.20
2018-09-12T01:44:02.266Z,90.50
2018-09-12T01:45:02.245Z,90.88
2018-09-12T01:46:02.262Z,90.98
2018-09-12T01:47:02.222Z,91.03
2018-09-12T01:48:02.246Z,91.30
2018-09-12T01:49:02.237Z,91.76
2018-09-12T01:50:02.292Z,92.14
2018-09-12T01:51:02.276Z,92.05
2018-09-12T01:52:02.161Z,92.01
2018-09-12T01:53:02.184Z,92.16
2018-09-12T01:54:02.163Z,92.38
2018-09-12T01:55:02.182Z,92.43
2018-09-12T01:56:02.260Z,92.22
2018-09-12T01:57:02.269Z,91.79
2018-09-12T01:58:02.285Z,91.52
2018-09-12T01:59:02.146Z,91.33
2018-09-12T02:00:02.264Z,90.98
2018-09-12T02:01:02.285Z,90.71
2018-09-12T02:02:02.241Z,90.53
2018-09-12T02:03:02.185Z,90.50
2018-09-12T02:04:02.276Z,90.28
2018-09-12T02:05:02.212Z,89.97
2018-09-12T02:06:02.222Z,89.91
2018-09-12T02:07:02.187Z,89.72
2018-09-12T02:08:02.270Z,89.80
2018-09-12T02:09:02.185Z,89.97
2018-09-12T02:10:02.313Z,89.94
2018-09-12T02:11:02.258Z,89.91
2018-09-12T02:12:02.263Z,89.99
2018-09-12T02:13:02.188Z,89.97
2018-09-12T02:14:02.261Z,89.59
2018-09-12T02:15:02.191Z,89.40
2018-09-12T02:16:02.253Z,89.27
2018-09-12T02:17:02.203Z,89.19
2018-09-12T02:18:02.271Z,89.19
2018-09-12T02:19:02.201Z,89.64
2018-09-12T02:20:02.195Z,89.83
2018-09-12T02:21:02.323Z,90.05
2018-09-12T02:22:02.263Z,90.23
2018-09-12T02:23:02.206Z,90.58
2018-09-12T02:24:02.286Z,90.55
2018-09-12T02:25:02.328Z,90.61
2018-09-12T02:26:02.161Z,90.90
2018-09-12T02:27:02.328Z,91.20
2018-09-12T02:28:02.116Z,91.60
2018-09-12T02:29:02.203Z,91.97
2018-09-12T02:30:02.204Z,92.46
2018-09-12T02:31:02.227Z,92.89
2018-09-12T02:32:02.298Z,92.97
2018-09-12T02:33:02.271Z,92.89
2018-09-12T02:34:02.207Z,92.99
2018-09-12T02:35:02.183Z,92.95
2018-09-12T02:36:02.328Z,92.86
2018-09-12T02:37:02.305Z,92.95
2018-09-12T02:38:02.292Z,92.95
2018-09-12T02:39:02.199Z,92.99
2018-09-12T02:40:02.302Z,93.10
2018-09-12T02:41:02.229Z,93.24
2018-09-12T02:42:02.219Z,93.24
2018-09-12T02:43:02.237Z,93.26
2018-09-12T02:44:02.217Z,93.37
2018-09-12T02:45:02.252Z,93.70
2018-09-12T02:46:02.299Z,93.99
2018-09-12T02:47:02.183Z,94.07
2018-09-12T02:48:02.277Z,94.37
2018-09-12T02:49:02.239Z,94.59
2018-09-12T02:50:02.193Z,94.67
2018-09-12T02:51:02.313Z,94.69
2018-09-12T02:52:02.287Z,94.83
2018-09-12T02:53:02.281Z,94.91
2018-09-12T02:54:02.357Z,95.12
2018-09-12T02:55:02.186Z,95.23
2018-09-12T02:56:02.324Z,95.39
2018-09-12T02:57:02.248Z,95.42
2018-09-12T02:58:02.206Z,95.39
2018-09-12T02:59:02.261Z,95.56
2018-09-12T03:00:02.212Z,95.61
2018-09-12T03:01:02.231Z,95.66
2018-09-12T03:02:02.330Z,95.75
2018-09-12T03:03:02.265Z,95.80
2018-09-12T03:04:02.248Z,95.88
2018-09-12T03:05:02.292Z,95.96
2018-09-12T03:06:02.213Z,96.09
2018-09-12T03:07:02.258Z,96.09
2018-09-12T03:08:02.433Z,96.04
2018-09-12T03:09:02.334Z,96.15
2018-09-12T03:10:02.327Z,96.15
2018-09-12T03:11:02.331Z,96.09
2018-09-12T03:12:02.320Z,96.15
2018-09-12T03:13:02.287Z,96.17
2018-09-12T03:14:02.295Z,96.20
2018-09-12T03:15:02.259Z,96.42
2018-09-12T03:16:02.277Z,96.64
2018-09-12T03:17:02.324Z,96.77
2018-09-12T03:18:02.359Z,96.80
2018-09-12T03:19:02.323Z,96.80
2018-09-12T03:20:02.268Z,96.85
2018-09-12T03:21:02.417Z,97.12
2018-09-12T03:22:02.203Z,97.15
2018-09-12T03:23:02.331Z,97.23
2018-09-12T03:24:02.332Z,97.36
2018-09-12T03:25:02.226Z,97.31
2018-09-12T03:26:02.350Z,97.36
2018-09-12T03:27:02.227Z,97.31
2018-09-12T03:28:02.273Z,97.36
2018-09-12T03:29:02.282Z,97.31
2018-09-12T03:30:02.330Z,97.28
2018-09-12T03:31:02.201Z,97.36
2018-09-12T03:32:02.326Z,97.34
2018-09-12T03:33:02.333Z,97.28
2018-09-12T03:34:02.260Z,97.21
2018-09-12T03:35:02.272Z,97.28
2018-09-12T03:36:02.245Z,97.55
2018-09-12T03:37:02.346Z,97.74
2018-09-12T03:38:02.274Z,97.85
2018-09-12T03:39:02.213Z,97.96
2018-09-12T03:40:02.325Z,98.12
2018-09-12T03:41:02.326Z,98.26
2018-09-12T03:42:02.389Z,98.34
2018-09-12T03:43:02.281Z,98.53
2018-09-12T03:44:02.271Z,98.61
2018-09-12T03:45:02.271Z,98.77
2018-09-12T03:46:02.338Z,98.85
2018-09-12T03:47:02.282Z,98.85
2018-09-12T03:48:02.369Z,98.88
2018-09-12T03:49:02.253Z,98.99
2018-09-12T03:50:02.257Z,98.99
2018-09-12T03:51:02.334Z,99.10
2018-09-12T03:52:02.285Z,99.13
2018-09-12T03:53:02.220Z,99.15
2018-09-12T03:54:02.275Z,99.23
2018-09-12T03:55:02.341Z,99.26
2018-09-12T03:56:02.340Z,99.43
2018-09-12T03:57:02.227Z,99.56
2018-09-12T03:58:02.337Z,99.67
2018-09-12T03:59:02.268Z,99.75
2018-09-12T04:00:02.369Z,99.86
2018-09-12T04:01:02.339Z,99.86
2018-09-12T04:02:02.252Z,99.83
2018-09-12T04:03:02.332Z,99.81
2018-09-12T04:04:02.363Z,99.72
2018-09-12T04:05:02.392Z,99.72
2018-09-12T04:06:02.302Z,99.78
2018-09-12T04:07:02.340Z,99.83
2018-09-12T04:08:02.307Z,99.86
2018-09-12T04:09:02.397Z,99.86
2018-09-12T04:10:02.265Z,99.86
2018-09-12T04:11:02.330Z,99.99
2018-09-12T04:12:02.334Z,99.99
2018-09-12T04:13:02.265Z,99.99
2018-09-12T04:14:02.335Z,99.99
2018-09-12T04:15:02.336Z,99.99
2018-09-12T04:16:02.263Z,99.99
2018-09-12T04:17:02.445Z,99.99
2018-09-12T04:18:02.397Z,99.99
2018-09-12T04:19:02.343Z,99.99
2018-09-12T04:20:02.270Z,99.99
2018-09-12T04:21:02.296Z,99.99
2018-09-12T04:22:02.338Z,99.78
2018-09-12T04:23:02.272Z,99.64
2018-09-12T04:24:02.358Z,99.53
2018-09-12T04:25:02.276Z,99.21
2018-09-12T04:26:02.344Z,98.96
2018-09-12T04:27:02.271Z,98.80
2018-09-12T04:28:02.279Z,98.59
2018-09-12T04:29:02.352Z,98.37
2018-09-12T04:30:02.377Z,98.26
2018-09-12T04:31:02.351Z,98.02
2018-09-12T04:32:02.295Z,97.80
2018-09-12T04:33:02.324Z,97.80
2018-09-12T04:34:02.269Z,97.64
2018-09-12T04:35:02.340Z,97.72
2018-09-12T04:36:02.395Z,97.91
2018-09-12T04:37:02.282Z,98.04
2018-09-12T04:38:02.301Z,97.99
2018-09-12T04:39:02.359Z,97.83
2018-09-12T04:40:02.294Z,97.66
2018-09-12T04:41:02.341Z,97.64
2018-09-12T04:42:02.372Z,97.55
2018-09-12T04:43:02.425Z,97.64
2018-09-12T04:44:02.358Z,97.66
2018-09-12T04:45:02.388Z,97.61
2018-09-12T04:46:02.449Z,97.61
2018-09-12T04:47:02.285Z,97.69
2018-09-12T04:48:02.364Z,97.74
2018-09-12T04:49:02.369Z,97.72
2018-09-12T04:50:02.369Z,97.77
2018-09-12T04:51:02.294Z,97.88
2018-09-12T04:52:02.410Z,97.88
2018-09-12T04:53:02.295Z,97.96
2018-09-12T04:54:02.293Z,97.99
2018-09-12T04:55:02.297Z,97.99
2018-09-12T04:56:02.364Z,98.10
2018-09-12T04:57:02.296Z,98.18
2018-09-12T04:58:02.365Z,98.50
2018-09-12T04:59:02.295Z,98.66
2018-09-12T05:00:02.370Z,98.77
2018-09-12T05:01:02.397Z,98.80
2018-09-12T05:02:02.387Z,98.85
2018-09-12T05:03:02.311Z,98.83
2018-09-12T05:04:02.394Z,98.99
2018-09-12T05:05:02.429Z,99.10
2018-09-12T05:06:02.317Z,99.29
2018-09-12T05:07:02.379Z,99.43
2018-09-12T05:08:02.315Z,99.53
2018-09-12T05:09:02.314Z,99.78
2018-09-12T05:10:02.331Z,99.86
2018-09-12T05:11:02.305Z,99.89
2018-09-12T05:12:02.310Z,99.89
2018-09-12T05:13:02.381Z,99.86
2018-09-12T05:14:02.314Z,99.96
2018-09-12T05:15:02.304Z,99.99
2018-09-12T05:16:02.445Z,99.99
2018-09-12T05:17:02.303Z,99.99
2018-09-12T05:18:02.298Z,99.99
2018-09-12T05:19:02.302Z,99.99
2018-09-12T05:20:02.445Z,99.99
2018-09-12T05:21:02.357Z,99.99
2018-09-12T05:22:02.398Z,99.99
2018-09-12T05:23:02.321Z,99.99
2018-09-12T05:24:02.349Z,99.99
2018-09-12T05:25:02.306Z,99.99
2018-09-12T05:26:02.340Z,99.99
2018-09-12T05:27:02.308Z,99.99
2018-09-12T05:28:02.329Z,99.99
2018-09-12T05:29:02.425Z,99.99
2018-09-12T05:30:02.353Z,99.99
2018-09-12T05:31:02.361Z,99.99
2018-09-12T05:32:02.458Z,99.99
2018-09-12T05:33:02.318Z,99.99
2018-09-12T05:34:02.369Z,99.99
2018-09-12T05:35:02.315Z,99.99
2018-09-12T05:36:02.341Z,99.99
2018-09-12T05:37:02.427Z,99.99
2018-09-12T05:38:02.425Z,99.99
2018-09-12T05:39:02.422Z,99.99
2018-09-12T05:40:02.370Z,99.99
2018-09-12T05:41:02.340Z,99.99
2018-09-12T05:42:02.334Z,99.99
2018-09-12T05:43:02.404Z,99.99
2018-09-12T05:44:02.414Z,99.99
2018-09-12T05:45:02.349Z,99.99
2018-09-12T05:46:02.405Z,99.99
2018-09-12T05:47:02.463Z,99.99
2018-09-12T05:48:02.411Z,99.99
2018-09-12T05:49:02.292Z,99.99
2018-09-12T05:50:02.460Z,99.99
2018-09-12T05:51:02.410Z,99.99
2018-09-12T05:52:02.347Z,99.99
2018-09-12T05:53:02.409Z,99.99
2018-09-12T05:54:02.360Z,99.99
2018-09-12T05:55:02.420Z,99.99
2018-09-12T05:56:02.355Z,99.99
2018-09-12T05:57:02.414Z,99.99
2018-09-12T05:58:02.414Z,99.99
2018-09-12T05:59:02.414Z,99.99
2018-09-12T06:00:02.321Z,99.99
2018-09-12T06:01:02.379Z,98.99
2018-09-12T06:02:02.420Z,98.34
2018-09-12T06:03:02.387Z,98.02
2018-09-12T06:04:02.361Z,97.31
2018-09-12T06:05:02.388Z,96.83
2018-09-12T06:06:02.482Z,96.39
2018-09-12T06:07:02.493Z,94.99
2018-09-12T06:08:02.418Z,93.99
2018-09-12T06:09:02.337Z,93.37
2018-09-12T06:10:02.357Z,92.76
2018-09-12T06:11:02.426Z,91.95
2018-09-12T06:12:02.427Z,91.76
2018-09-12T06:13:02.426Z,90.34
2018-09-12T06:14:02.447Z,90.07
2018-09-12T06:15:02.433Z,89.56
2018-09-12T06:16:02.371Z,89.29
2018-09-12T06:17:02.435Z,89.43
2018-09-12T06:18:02.435Z,89.37
2018-09-12T06:19:02.428Z,89.14
2018-09-12T06:20:02.426Z,88.84
2018-09-12T06:21:02.490Z,88.76
2018-09-12T06:22:02.339Z,88.23
2018-09-12T06:23:02.422Z,87.88
2018-09-12T06:24:02.421Z,87.80
2018-09-12T06:25:02.430Z,87.80
2018-09-12T06:26:02.355Z,87.02
2018-09-12T06:27:02.354Z,86.49
2018-09-12T06:28:02.429Z,85.77
2018-09-12T06:29:02.428Z,85.21
2018-09-12T06:30:02.436Z,84.97
2018-09-12T06:31:02.360Z,84.44
2018-09-12T06:32:02.361Z,83.04
2018-09-12T06:33:02.342Z,81.71
2018-09-12T06:34:02.421Z,81.63
2018-09-12T06:35:02.327Z,81.02
2018-09-12T06:36:02.430Z,81.50
2018-09-12T06:37:02.395Z,81.68
2018-09-12T06:38:02.433Z,81.18
2018-09-12T06:39:02.370Z,80.47
2018-09-12T06:40:02.473Z,78.59
2018-09-12T06:41:02.378Z,77.83
2018-09-12T06:42:02.410Z,77.94
2018-09-12T06:43:02.467Z,76.83
2018-09-12T06:44:02.443Z,76.78
2018-09-12T06:45:02.467Z,76.75
2018-09-12T06:46:02.505Z,76.46
2018-09-12T06:47:02.481Z,75.10
2018-09-12T06:48:02.478Z,74.97
2018-09-12T06:49:02.387Z,75.86
2018-09-12T06:50:02.371Z,74.32
2018-09-12T06:51:02.394Z,73.89
2018-09-12T06:52:02.402Z,74.40
2018-09-12T06:53:02.442Z,74.08
2018-09-12T06:54:02.361Z,73.42
2018-09-12T06:55:02.445Z,77.62
2018-09-12T06:56:02.447Z,73.89
2018-09-12T06:57:02.448Z,72.93
2018-09-12T06:58:02.505Z,72.22
2018-09-12T06:59:02.371Z,72.04
2018-09-12T07:00:02.417Z,73.14
2018-09-12T07:01:02.455Z,74.89
2018-09-12T07:02:02.466Z,73.24
2018-09-12T07:03:02.516Z,69.51
2018-09-12T07:04:02.364Z,69.65
2018-09-12T07:05:02.464Z,69.88
2018-09-12T07:06:02.361Z,69.28
2018-09-12T07:07:02.427Z,67.93
2018-09-12T07:08:02.519Z,68.11
2018-09-12T07:09:02.383Z,67.08
2018-09-12T07:10:02.409Z,68.84
2018-09-12T07:11:02.462Z,66.66
2018-09-12T07:12:02.389Z,68.32
2018-09-12T07:13:02.493Z,65.99
2018-09-12T07:14:02.432Z,66.30
2018-09-12T07:15:02.430Z,66.56
2018-09-12T07:16:02.485Z,65.96
2018-09-12T07:17:02.494Z,65.94
2018-09-12T07:18:02.471Z,66.77
2018-09-12T07:19:02.497Z,66.09
2018-09-12T07:20:02.481Z,64.72
2018-09-12T07:21:02.528Z,70.35
2018-09-12T07:22:02.472Z,64.42
2018-09-12T07:23:02.410Z,63.10
2018-09-12T07:24:02.428Z,62.58
2018-09-12T07:25:02.459Z,63.23
2018-09-12T07:26:02.499Z,62.94
2018-09-12T07:27:02.448Z,61.20
2018-09-12T07:28:02.502Z,61.56
2018-09-12T07:29:02.402Z,61.17
2018-09-12T07:30:02.491Z,61.76
2018-09-12T07:31:02.481Z,60.61
2018-09-12T07:32:02.477Z,60.40
2018-09-12T07:33:02.436Z,60.20
2018-09-12T07:34:02.403Z,60.30
2018-09-12T07:35:02.517Z,60.07
2018-09-12T07:36:02.558Z,61.09
2018-09-12T07:37:02.480Z,60.71
2018-09-12T07:38:02.506Z,63.28
2018-09-12T07:39:02.419Z,61.91
2018-09-12T07:40:02.495Z,60.12
2018-09-12T07:41:02.431Z,61.12
2018-09-12T07:42:02.497Z,59.76
2018-09-12T07:43:02.421Z,59.37
2018-09-12T07:44:02.423Z,62.02
2018-09-12T07:45:02.494Z,61.25
2018-09-12T07:46:02.425Z,62.40
2018-09-12T07:47:02.421Z,62.69
2018-09-12T07:48:02.425Z,62.10
2018-09-12T07:49:02.557Z,57.30
2018-09-12T07:50:02.426Z,57.08
2018-09-12T07:51:02.484Z,58.56
2018-09-12T07:52:02.425Z,59.20
2018-09-12T07:53:02.489Z,57.46
2018-09-12T07:54:02.489Z,56.85
2018-09-12T07:55:02.493Z,58.94
2018-09-12T07:56:02.516Z,56.08
2018-09-12T07:57:02.439Z,55.09
2018-09-12T07:58:02.454Z,57.26
2018-09-12T07:59:02.485Z,55.78
2018-09-12T08:00:02.490Z,56.26
2018-09-12T08:01:02.572Z,56.06
2018-09-12T08:02:02.496Z,59.12
2018-09-12T08:03:02.444Z,57.82
2018-09-12T08:04:02.434Z,57.15
2018-09-12T08:05:02.463Z,55.80
2018-09-12T08:06:02.511Z,55.96
2018-09-12T08:07:02.506Z,56.57
2018-09-12T08:08:02.513Z,58.20
2018-09-12T08:09:02.535Z,54.37
2018-09-12T08:10:02.511Z,53.69
2018-09-12T08:11:02.443Z,54.41
2018-09-12T08:12:02.518Z,53.67
2018-09-12T08:13:02.521Z,56.16
2018-09-12T08:14:02.568Z,53.72
2018-09-12T08:15:02.444Z,53.87
2018-09-12T08:16:02.516Z,54.63
2018-09-12T08:17:02.476Z,55.88
2018-09-12T08:18:02.478Z,56.52
2018-09-12T08:19:02.636Z,55.98
2018-09-12T08:20:02.518Z,56.87
2018-09-12T08:21:02.555Z,56.61
2018-09-12T08:22:02.534Z,56.74
2018-09-12T08:23:02.452Z,55.37
2018-09-12T08:24:02.496Z,56.82
2018-09-12T08:25:02.440Z,55.24
2018-09-12T08:26:02.497Z,55.52
2018-09-12T08:27:02.552Z,55.88
2018-09-12T08:28:02.502Z,56.18
2018-09-12T08:29:02.522Z,57.87
2018-09-12T08:30:02.462Z,57.38
2018-09-12T08:31:02.524Z,56.44
2018-09-12T08:32:02.524Z,58.04
2018-09-12T08:33:02.454Z,57.08
2018-09-12T08:34:02.464Z,56.74
2018-09-12T08:35:02.457Z,57.33
2018-09-12T08:36:02.534Z,57.08
2018-09-12T08:37:02.529Z,56.65
2018-09-12T08:38:02.534Z,55.85
2018-09-12T08:39:02.527Z,56.95
2018-09-12T08:40:02.469Z,56.24
2018-09-12T08:41:02.516Z,56.87
2018-09-12T08:42:02.528Z,57.30
2018-09-12T08:43:02.431Z,56.82
2018-09-12T08:44:02.526Z,56.00
2018-09-12T08:45:02.455Z,56.69
2018-09-12T08:46:02.526Z,55.80
2018-09-12T08:47:02.523Z,56.13
2018-09-12T08:48:02.453Z,55.45
2018-09-12T08:49:02.476Z,54.58
2018-09-12T08:50:02.537Z,54.89
2018-09-12T08:51:02.467Z,54.56
2018-09-12T08:52:02.543Z,55.02
2018-09-12T08:53:02.652Z,54.56
2018-09-12T08:54:02.482Z,55.32
2018-09-12T08:55:02.542Z,54.94
2018-09-12T08:56:02.548Z,55.37
2018-09-12T08:57:02.492Z,54.96
2018-09-12T08:58:02.478Z,55.63
2018-09-12T08:59:02.545Z,55.55
2018-09-12T09:00:02.535Z,56.36
2018-09-12T09:01:02.459Z,54.68
2018-09-12T09:02:02.507Z,53.84
2018-09-12T09:03:02.459Z,54.00
2018-09-12T09:04:02.508Z,53.95
2018-09-12T09:05:02.535Z,54.94
2018-09-12T09:06:02.546Z,52.55
2018-09-12T09:07:02.540Z,52.65
2018-09-12T09:08:02.468Z,52.96
2018-09-12T09:09:02.465Z,52.93
2018-09-12T09:10:02.570Z,53.31
2018-09-12T09:11:02.452Z,54.48
2018-09-12T09:12:02.551Z,54.30
2018-09-12T09:13:02.580Z,53.77
2018-09-12T09:14:02.507Z,53.42
2018-09-12T09:15:02.479Z,53.92
2018-09-12T09:16:02.471Z,53.87
2018-09-12T09:17:02.528Z,54.96
2018-09-12T09:18:02.552Z,54.02
2018-09-12T09:19:02.482Z,54.86
2018-09-12T09:20:02.554Z,53.77
2018-09-12T09:22:02.488Z,54.23
2018-09-12T09:23:02.566Z,53.69
2018-09-12T09:24:02.489Z,54.96
2018-09-12T09:25:02.498Z,55.60
2018-09-12T09:26:02.560Z,55.27
2018-09-12T09:27:02.499Z,55.19
2018-09-12T09:28:02.561Z,56.03
2018-09-12T09:29:02.576Z,55.11
2018-09-12T09:30:02.570Z,54.48
2018-09-12T09:31:02.481Z,54.53
2018-09-12T09:32:02.493Z,55.17
2018-09-12T09:33:02.467Z,55.80
2018-09-12T09:34:02.484Z,55.04
2018-09-12T09:35:02.816Z,55.24
2018-09-12T09:36:02.468Z,54.00
2018-09-12T09:37:02.558Z,53.95
2018-09-12T09:38:02.487Z,54.35
2018-09-12T09:39:02.494Z,54.35
2018-09-12T09:40:02.565Z,54.71
2018-09-12T09:41:02.630Z,53.95
2018-09-12T09:42:02.508Z,54.02
2018-09-12T09:43:02.505Z,54.17
2018-09-12T09:44:02.631Z,53.75
2018-09-12T09:45:02.505Z,53.64
2018-09-12T09:46:02.515Z,53.75
2018-09-12T09:47:02.577Z,53.67
2018-09-12T09:48:02.707Z,53.72
2018-09-12T09:49:02.509Z,54.15
2018-09-12T09:50:02.526Z,53.69
2018-09-12T09:51:02.570Z,54.25
2018-09-12T09:52:02.562Z,53.67
2018-09-12T09:53:02.543Z,53.31
2018-09-12T09:54:02.610Z,51.74
2018-09-12T09:55:02.489Z,51.33
2018-09-12T09:56:02.556Z,52.07
2018-09-12T09:57:02.608Z,52.12
2018-09-12T09:58:02.465Z,51.08
2018-09-12T09:59:02.603Z,52.53
2018-09-12T10:00:02.543Z,51.54
2018-09-12T10:01:02.617Z,50.83
2018-09-12T10:02:02.503Z,50.55
2018-09-12T10:03:02.588Z,51.57
2018-09-12T10:04:02.546Z,51.69
2018-09-12T10:05:02.548Z,51.11
2018-09-12T10:06:02.607Z,51.77
2018-09-12T10:07:02.590Z,52.30
2018-09-12T10:08:02.617Z,50.71
2018-09-12T10:09:02.547Z,51.16
2018-09-12T10:10:02.552Z,50.40
2018-09-12T10:11:02.598Z,50.40
2018-09-12T10:12:02.603Z,49.82
2018-09-12T10:13:02.604Z,49.97
2018-09-12T10:14:02.533Z,50.40
2018-09-12T10:15:02.600Z,50.80
2018-09-12T10:16:02.594Z,51.29
2018-09-12T10:17:02.534Z,52.12
2018-09-12T10:18:02.534Z,51.99
2018-09-12T10:19:02.601Z,52.43
2018-09-12T10:20:02.532Z,52.53
2018-09-12T10:21:02.598Z,52.17
2018-09-12T10:22:02.622Z,52.53
2018-09-12T10:23:02.634Z,52.83
2018-09-12T10:24:02.607Z,52.45
2018-09-12T10:25:02.626Z,52.27
2018-09-12T10:26:02.508Z,51.62
2018-09-12T10:27:02.579Z,51.13
2018-09-12T10:28:02.637Z,51.21
2018-09-12T10:29:02.580Z,50.40
2018-09-12T10:30:02.635Z,50.58
2018-09-12T10:31:02.533Z,49.95
2018-09-12T10:32:02.586Z,50.27
2018-09-12T10:33:02.549Z,49.85
2018-09-12T10:34:02.599Z,50.71
2018-09-12T10:35:02.598Z,49.87
2018-09-12T10:36:02.545Z,50.20
2018-09-12T10:37:02.503Z,50.50
2018-09-12T10:38:02.545Z,50.38
2018-09-12T10:39:02.481Z,49.82
2018-09-12T10:40:02.539Z,49.19
2018-09-12T10:41:02.524Z,50.68
2018-09-12T10:42:02.515Z,48.89
2018-09-12T10:43:02.515Z,50.15
2018-09-12T10:44:02.531Z,49.17
2018-09-12T10:45:02.643Z,49.17
2018-09-12T10:46:02.659Z,48.34
2018-09-12T10:47:02.546Z,48.23
2018-09-12T10:48:02.543Z,47.73
2018-09-12T10:49:02.608Z,48.72
2018-09-12T10:50:02.552Z,48.74
2018-09-12T10:51:02.541Z,49.06
2018-09-12T10:52:02.618Z,48.92
2018-09-12T10:53:02.562Z,48.79
2018-09-12T10:54:02.632Z,49.04
2018-09-12T10:55:02.543Z,48.61
2018-09-12T10:56:02.608Z,47.86
2018-09-12T10:57:02.550Z,48.11
2018-09-12T10:58:02.659Z,46.38
2018-09-12T10:59:02.602Z,46.63
2018-09-12T11:00:02.584Z,47.26
2018-09-12T11:01:02.614Z,46.83
2018-09-12T11:02:02.550Z,46.75
2018-09-12T11:03:02.614Z,46.75
2018-09-12T11:04:02.547Z,47.33
2018-09-12T11:05:02.555Z,46.63
2018-09-12T11:06:02.627Z,48.01
2018-09-12T11:07:02.553Z,49.92
2018-09-12T11:08:02.621Z,49.29
2018-09-12T11:09:02.549Z,50.00
2018-09-12T11:10:02.627Z,50.25
2018-09-12T11:11:02.654Z,49.69
2018-09-12T11:12:02.634Z,48.59
2018-09-12T11:13:02.636Z,48.92
2018-09-12T11:14:02.614Z,49.27
2018-09-12T11:15:02.651Z,48.16
2018-09-12T11:16:02.573Z,48.36
2018-09-12T11:17:02.665Z,47.63
2018-09-12T11:18:02.641Z,48.34
2018-09-12T11:19:02.676Z,48.34
2018-09-12T11:20:02.664Z,48.84
2018-09-12T11:21:02.660Z,48.51
2018-09-12T11:22:02.652Z,47.83
2018-09-12T11:23:02.659Z,49.06
2018-09-12T11:24:02.658Z,49.34
2018-09-12T11:25:02.703Z,49.37
2018-09-12T11:26:02.562Z,48.92
2018-09-12T11:27:02.563Z,48.69
2018-09-12T11:28:02.605Z,48.48
2018-09-12T11:29:02.584Z,48.46
2018-09-12T11:30:02.566Z,49.44
2018-09-12T11:31:02.655Z,49.32
2018-09-12T11:32:02.625Z,48.81
2018-09-12T11:33:02.610Z,49.02
2018-09-12T11:34:02.567Z,48.61
2018-09-12T11:35:02.646Z,48.54
2018-09-12T11:36:02.658Z,49.06
2018-09-12T11:37:02.658Z,49.29
2018-09-12T11:38:02.610Z,49.55
2018-09-12T11:39:02.556Z,49.85
2018-09-12T11:40:02.585Z,49.17
2018-09-12T11:41:02.680Z,50.20
2018-09-12T11:42:02.695Z,50.07
2018-09-12T11:43:02.638Z,49.22
2018-09-12T11:44:02.615Z,49.29
2018-09-12T11:45:02.679Z,48.86
2018-09-12T11:46:02.623Z,48.79
2018-09-12T11:47:02.717Z,48.81
2018-09-12T11:48:02.639Z,48.92
2018-09-12T11:49:02.646Z,48.14
2018-09-12T11:50:02.725Z,48.28
2018-09-12T11:51:02.600Z,48.74
2018-09-12T11:52:02.667Z,47.71
2018-09-12T11:53:02.605Z,47.93
2018-09-12T11:54:02.669Z,47.13
2018-09-12T11:55:02.597Z,47.06
2018-09-12T11:56:02.674Z,46.07
2018-09-12T11:57:02.675Z,45.18
2018-09-12T11:58:02.679Z,45.35
2018-09-12T11:59:02.612Z,45.12
2018-09-12T12:00:02.677Z,45.62
2018-09-12T12:01:02.673Z,45.32
2018-09-12T12:02:02.653Z,45.40
2018-09-12T12:03:02.569Z,44.85
2018-09-12T12:04:02.631Z,44.30
2018-09-12T12:05:02.669Z,44.72
2018-09-12T12:06:02.698Z,44.25
2018-09-12T12:07:02.631Z,44.52
2018-09-12T12:08:02.684Z,44.00
2018-09-12T12:09:02.640Z,44.60
2018-09-12T12:10:02.676Z,43.63
2018-09-12T12:11:02.675Z,43.85
2018-09-12T12:12:02.632Z,44.15
2018-09-12T12:13:02.679Z,44.39
2018-09-12T12:14:02.611Z,44.12
2018-09-12T12:15:02.618Z,44.25
2018-09-12T12:16:02.739Z,43.95
2018-09-12T12:17:02.614Z,44.22
2018-09-12T12:18:02.618Z,44.00
2018-09-12T12:19:02.685Z,44.17
2018-09-12T12:20:02.684Z,43.85
2018-09-12T12:21:02.616Z,44.95
2018-09-12T12:22:02.685Z,43.52
2018-09-12T12:23:02.656Z,43.57
2018-09-12T12:24:02.704Z,43.08
2018-09-12T12:25:02.753Z,42.72
2018-09-12T12:26:02.623Z,43.17
2018-09-12T12:27:02.624Z,42.60
2018-09-12T12:28:02.700Z,42.87
2018-09-12T12:29:02.626Z,42.70
2018-09-12T12:30:02.646Z,42.35
2018-09-12T12:31:02.688Z,45.43
2018-09-12T12:32:02.591Z,43.52
2018-09-12T12:33:02.712Z,42.00
2018-09-12T12:34:02.690Z,41.68
2018-09-12T12:35:02.655Z,42.37
2018-09-12T12:36:02.652Z,41.23
2018-09-12T12:37:02.701Z,41.10
2018-09-12T12:38:02.718Z,40.91
2018-09-12T12:39:02.743Z,42.90
2018-09-12T12:40:02.698Z,41.15
2018-09-12T12:41:02.683Z,41.28
2018-09-12T12:42:02.737Z,42.35
2018-09-12T12:43:02.763Z,42.08
2018-09-12T12:44:02.622Z,41.38
2018-09-12T12:45:02.619Z,41.26
2018-09-12T12:46:02.728Z,41.73
2018-09-12T12:47:02.720Z,42.20
2018-09-12T12:48:02.625Z,42.28
2018-09-12T12:49:02.709Z,41.35
2018-09-12T12:50:02.668Z,42.55
2018-09-12T12:51:02.687Z,41.98
2018-09-12T12:52:02.698Z,42.65
2018-09-12T12:53:02.628Z,42.20